Terminal Aerodrome Forecast
Issued by NWS

Home | Current Version | Previous Version | Text Only | Print | Product List | Glossary On
Versions: 1 2 3 4 5 6 7 8 9 10 11 12 13 14 15 16 17
000
FTUS43 KDTX 191120
TAFDET
TAF
KDET 191120Z 1912/2012 22010KT P6SM BKN200
     FM191600 22014G20KT P6SM FEW020 BKN150
     FM192200 22012KT P6SM BKN150
     FM200800 21010KT P6SM BKN020=

USA.gov is the U.S. government's official web portal to all federal, state and local government web resources and services.